sensor_id;sensor_type;location;lat;lon;timestamp;temperature;humidity
72814;DHT22;60945;48.516;-2.768;2023-03-01T00:01:11;4.90;67.50
72814;DHT22;60945;48.516;-2.768;2023-03-01T00:03:38;4.90;67.50
72814;DHT22;60945;48.516;-2.768;2023-03-01T00:06:04;4.90;67.70
72814;DHT22;60945;48.516;-2.768;2023-03-01T00:08:30;5.00;67.60
72814;DHT22;60945;48.516;-2.768;2023-03-01T00:11:03;5.10;67.20
72814;DHT22;60945;48.516;-2.768;2023-03-01T00:13:29;5.00;67.30
72814;DHT22;60945;48.516;-2.768;2023-03-01T00:15:54;5.00;67.50
72814;DHT22;60945;48.516;-2.768;2023-03-01T00:18:20;5.10;67.20
72814;DHT22;60945;48.516;-2.768;2023-03-01T00:20:50;5.00;67.10
72814;DHT22;60945;48.516;-2.768;2023-03-01T00:23:16;5.00;67.10
72814;DHT22;60945;48.516;-2.768;2023-03-01T00:25:43;5.00;67.50
72814;DHT22;60945;48.516;-2.768;2023-03-01T00:28:08;4.90;67.20
72814;DHT22;60945;48.516;-2.768;2023-03-01T00:30:34;5.00;66.60
72814;DHT22;60945;48.516;-2.768;2023-03-01T00:33:00;5.10;66.40
72814;DHT22;60945;48.516;-2.768;2023-03-01T00:35:25;5.20;66.20
72814;DHT22;60945;48.516;-2.768;2023-03-01T00:37:51;5.10;65.70
72814;DHT22;60945;48.516;-2.768;2023-03-01T00:40:24;5.10;65.80
72814;DHT22;60945;48.516;-2.768;2023-03-01T00:42:49;5.10;65.50
72814;DHT22;60945;48.516;-2.768;2023-03-01T00:45:15;5.00;65.80
72814;DHT22;60945;48.516;-2.768;2023-03-01T00:47:41;5.00;65.80
72814;DHT22;60945;48.516;-2.768;2023-03-01T00:50:08;5.10;65.50
72814;DHT22;60945;48.516;-2.768;2023-03-01T00:52:34;4.90;64.80
72814;DHT22;60945;48.516;-2.768;2023-03-01T00:54:59;4.80;64.70
72814;DHT22;60945;48.516;-2.768;2023-03-01T00:57:25;4.90;64.30
72814;DHT22;60945;48.516;-2.768;2023-03-01T00:59:51;4.90;63.90
72814;DHT22;60945;48.516;-2.768;2023-03-01T01:02:19;4.80;64.00
72814;DHT22;60945;48.516;-2.768;2023-03-01T01:04:45;4.90;63.70
72814;DHT22;60945;48.516;-2.768;2023-03-01T01:07:11;4.90;63.70
72814;DHT22;60945;48.516;-2.768;2023-03-01T01:09:36;4.70;63.70
72814;DHT22;60945;48.516;-2.768;2023-03-01T01:12:03;4.80;63.10
72814;DHT22;60945;48.516;-2.768;2023-03-01T01:14:29;4.80;62.70
72814;DHT22;60945;48.516;-2.768;2023-03-01T01:16:55;4.90;62.70
72814;DHT22;60945;48.516;-2.768;2023-03-01T01:19:21;4.90;62.10
72814;DHT22;60945;48.516;-2.768;2023-03-01T01:21:47;4.80;62.00
72814;DHT22;60945;48.516;-2.768;2023-03-01T01:24:14;4.70;62.20
72814;DHT22;60945;48.516;-2.768;2023-03-01T01:26:40;4.70;61.30
72814;DHT22;60945;48.516;-2.768;2023-03-01T01:29:06;4.70;60.70
72814;DHT22;60945;48.516;-2.768;2023-03-01T01:31:34;4.50;60.60
72814;DHT22;60945;48.516;-2.768;2023-03-01T01:34:01;4.50;60.70
72814;DHT22;60945;48.516;-2.768;2023-03-01T01:36:27;4.40;60.20
72814;DHT22;60945;48.516;-2.768;2023-03-01T01:38:53;4.50;60.30
72814;DHT22;60945;48.516;-2.768;2023-03-01T01:41:20;4.50;60.00
72814;DHT22;60945;48.516;-2.768;2023-03-01T01:46:49;4.50;59.20
72814;DHT22;60945;48.516;-2.768;2023-03-01T01:49:21;4.40;59.20
72814;DHT22;60945;48.516;-2.768;2023-03-01T01:51:51;4.20;58.60
72814;DHT22;60945;48.516;-2.768;2023-03-01T01:54:25;4.20;59.10
72814;DHT22;60945;48.516;-2.768;2023-03-01T01:56:59;4.20;58.80
72814;DHT22;60945;48.516;-2.768;2023-03-01T01:59:28;4.00;59.30
72814;DHT22;60945;48.516;-2.768;2023-03-01T02:01:54;4.20;59.50
72814;DHT22;60945;48.516;-2.768;2023-03-01T02:04:21;4.20;58.90
72814;DHT22;60945;48.516;-2.768;2023-03-01T02:09:50;4.30;59.40
72814;DHT22;60945;48.516;-2.768;2023-03-01T02:12:20;4.20;59.30
72814;DHT22;60945;48.516;-2.768;2023-03-01T02:14:47;4.20;59.30
72814;DHT22;60945;48.516;-2.768;2023-03-01T02:17:14;4.10;59.70
72814;DHT22;60945;48.516;-2.768;2023-03-01T02:22:35;4.10;59.80
72814;DHT22;60945;48.516;-2.768;2023-03-01T02:30:13;4.30;59.40
72814;DHT22;60945;48.516;-2.768;2023-03-01T02:32:40;4.30;59.60
72814;DHT22;60945;48.516;-2.768;2023-03-01T02:35:12;4.10;59.60
72814;DHT22;60945;48.516;-2.768;2023-03-01T02:37:40;4.20;60.00
72814;DHT22;60945;48.516;-2.768;2023-03-01T02:40:10;4.20;59.90
72814;DHT22;60945;48.516;-2.768;2023-03-01T02:42:55;4.00;60.20
72814;DHT22;60945;48.516;-2.768;2023-03-01T02:45:22;4.10;60.40
72814;DHT22;60945;48.516;-2.768;2023-03-01T02:47:48;4.10;60.40
72814;DHT22;60945;48.516;-2.768;2023-03-01T02:52:57;4.00;60.50
72814;DHT22;60945;48.516;-2.768;2023-03-01T02:55:27;4.00;60.60
72814;DHT22;60945;48.516;-2.768;2023-03-01T02:57:53;4.00;61.00
72814;DHT22;60945;48.516;-2.768;2023-03-01T03:00:33;4.00;60.80
72814;DHT22;60945;48.516;-2.768;2023-03-01T03:03:00;3.90;61.30
72814;DHT22;60945;48.516;-2.768;2023-03-01T03:05:30;3.90;61.10
72814;DHT22;60945;48.516;-2.768;2023-03-01T03:07:57;3.80;61.60
72814;DHT22;60945;48.516;-2.768;2023-03-01T03:10:31;3.80;61.70
72814;DHT22;60945;48.516;-2.768;2023-03-01T03:13:03;3.80;61.80
72814;DHT22;60945;48.516;-2.768;2023-03-01T03:15:29;3.80;61.50
72814;DHT22;60945;48.516;-2.768;2023-03-01T03:17:57;3.90;61.50
72814;DHT22;60945;48.516;-2.768;2023-03-01T03:20:26;4.00;60.90
72814;DHT22;60945;48.516;-2.768;2023-03-01T03:22:53;3.90;61.00
72814;DHT22;60945;48.516;-2.768;2023-03-01T03:25:20;4.00;61.30
72814;DHT22;60945;48.516;-2.768;2023-03-01T03:27:48;4.00;60.90
72814;DHT22;60945;48.516;-2.768;2023-03-01T03:30:17;3.90;61.20
72814;DHT22;60945;48.516;-2.768;2023-03-01T03:32:47;3.80;61.10
72814;DHT22;60945;48.516;-2.768;2023-03-01T03:35:26;3.90;61.00
72814;DHT22;60945;48.516;-2.768;2023-03-01T03:37:55;3.90;60.30
72814;DHT22;60945;48.516;-2.768;2023-03-01T03:40:30;4.00;60.10
72814;DHT22;60945;48.516;-2.768;2023-03-01T03:42:56;4.00;59.80
72814;DHT22;60945;48.516;-2.768;2023-03-01T03:45:22;4.00;59.60
72814;DHT22;60945;48.516;-2.768;2023-03-01T03:47:47;4.00;59.10
72814;DHT22;60945;48.516;-2.768;2023-03-01T03:50:15;4.00;58.30
72814;DHT22;60945;48.516;-2.768;2023-03-01T03:52:41;4.10;57.90
72814;DHT22;60945;48.516;-2.768;2023-03-01T03:55:09;4.00;57.90
72814;DHT22;60945;48.516;-2.768;2023-03-01T03:57:36;4.10;57.40
72814;DHT22;60945;48.516;-2.768;2023-03-01T04:00:03;4.00;57.20
72814;DHT22;60945;48.516;-2.768;2023-03-01T04:02:30;4.00;57.10
72814;DHT22;60945;48.516;-2.768;2023-03-01T04:04:56;4.00;57.00
72814;DHT22;60945;48.516;-2.768;2023-03-01T04:07:22;4.00;56.50
72814;DHT22;60945;48.516;-2.768;2023-03-01T04:09:47;3.90;56.80
72814;DHT22;60945;48.516;-2.768;2023-03-01T04:12:13;4.00;56.80
72814;DHT22;60945;48.516;-2.768;2023-03-01T04:14:39;4.00;56.90
72814;DHT22;60945;48.516;-2.768;2023-03-01T04:17:05;4.10;56.90
72814;DHT22;60945;48.516;-2.768;2023-03-01T04:19:31;4.00;56.70
72814;DHT22;60945;48.516;-2.768;2023-03-01T04:22:02;4.10;56.90
72814;DHT22;60945;48.516;-2.768;2023-03-01T04:24:35;4.10;56.90
72814;DHT22;60945;48.516;-2.768;2023-03-01T04:27:00;4.20;57.00
72814;DHT22;60945;48.516;-2.768;2023-03-01T04:29:26;4.10;57.10
72814;DHT22;60945;48.516;-2.768;2023-03-01T04:31:52;4.10;57.70
72814;DHT22;60945;48.516;-2.768;2023-03-01T04:34:18;4.00;58.10
72814;DHT22;60945;48.516;-2.768;2023-03-01T04:36:44;4.10;58.40
72814;DHT22;60945;48.516;-2.768;2023-03-01T04:39:09;4.10;58.40
72814;DHT22;60945;48.516;-2.768;2023-03-01T04:41:39;4.20;58.50
72814;DHT22;60945;48.516;-2.768;2023-03-01T04:44:06;4.10;58.90
72814;DHT22;60945;48.516;-2.768;2023-03-01T04:46:32;4.10;59.10
72814;DHT22;60945;48.516;-2.768;2023-03-01T04:48:57;4.10;59.20
72814;DHT22;60945;48.516;-2.768;2023-03-01T04:51:23;4.20;59.40
72814;DHT22;60945;48.516;-2.768;2023-03-01T04:53:49;4.10;59.50
72814;DHT22;60945;48.516;-2.768;2023-03-01T04:56:17;4.20;59.60
72814;DHT22;60945;48.516;-2.768;2023-03-01T04:58:44;4.30;59.50
72814;DHT22;60945;48.516;-2.768;2023-03-01T05:01:13;4.30;59.50
72814;DHT22;60945;48.516;-2.768;2023-03-01T05:03:50;4.30;59.60
72814;DHT22;60945;48.516;-2.768;2023-03-01T05:06:17;4.50;59.30
72814;DHT22;60945;48.516;-2.768;2023-03-01T05:08:43;4.30;59.60
72814;DHT22;60945;48.516;-2.768;2023-03-01T05:11:10;4.30;59.90
72814;DHT22;60945;48.516;-2.768;2023-03-01T05:13:37;4.20;60.00
72814;DHT22;60945;48.516;-2.768;2023-03-01T05:16:05;4.30;59.70
72814;DHT22;60945;48.516;-2.768;2023-03-01T05:18:32;4.40;59.50
72814;DHT22;60945;48.516;-2.768;2023-03-01T05:21:09;4.30;59.00
72814;DHT22;60945;48.516;-2.768;2023-03-01T05:23:35;4.30;58.70
72814;DHT22;60945;48.516;-2.768;2023-03-01T05:26:03;4.30;58.30
72814;DHT22;60945;48.516;-2.768;2023-03-01T05:28:30;4.30;58.20
72814;DHT22;60945;48.516;-2.768;2023-03-01T05:30:56;4.40;57.00
72814;DHT22;60945;48.516;-2.768;2023-03-01T05:33:23;4.40;57.00
72814;DHT22;60945;48.516;-2.768;2023-03-01T05:35:50;4.50;56.50
72814;DHT22;60945;48.516;-2.768;2023-03-01T05:38:16;4.50;56.10
72814;DHT22;60945;48.516;-2.768;2023-03-01T05:40:45;4.30;56.20
72814;DHT22;60945;48.516;-2.768;2023-03-01T05:43:12;4.40;56.00
72814;DHT22;60945;48.516;-2.768;2023-03-01T05:45:39;4.50;55.80
72814;DHT22;60945;48.516;-2.768;2023-03-01T05:48:06;4.50;55.20
72814;DHT22;60945;48.516;-2.768;2023-03-01T05:50:34;4.50;54.80
72814;DHT22;60945;48.516;-2.768;2023-03-01T05:53:06;4.50;54.90
72814;DHT22;60945;48.516;-2.768;2023-03-01T05:55:34;4.50;54.10
72814;DHT22;60945;48.516;-2.768;2023-03-01T05:58:01;4.50;54.20
72814;DHT22;60945;48.516;-2.768;2023-03-01T06:00:27;4.50;53.70
72814;DHT22;60945;48.516;-2.768;2023-03-01T06:02:54;4.50;54.10
72814;DHT22;60945;48.516;-2.768;2023-03-01T06:05:20;4.50;53.60
72814;DHT22;60945;48.516;-2.768;2023-03-01T06:07:46;4.50;53.40
72814;DHT22;60945;48.516;-2.768;2023-03-01T06:10:12;4.40;53.40
72814;DHT22;60945;48.516;-2.768;2023-03-01T06:12:40;4.40;53.40
72814;DHT22;60945;48.516;-2.768;2023-03-01T06:15:07;4.40;53.10
72814;DHT22;60945;48.516;-2.768;2023-03-01T06:17:36;4.40;53.10
72814;DHT22;60945;48.516;-2.768;2023-03-01T06:22:33;4.30;53.10
72814;DHT22;60945;48.516;-2.768;2023-03-01T06:24:58;4.40;53.00
72814;DHT22;60945;48.516;-2.768;2023-03-01T06:27:24;4.30;53.30
72814;DHT22;60945;48.516;-2.768;2023-03-01T06:29:50;4.20;53.50
72814;DHT22;60945;48.516;-2.768;2023-03-01T06:32:15;4.40;53.20
72814;DHT22;60945;48.516;-2.768;2023-03-01T06:34:41;4.30;53.50
72814;DHT22;60945;48.516;-2.768;2023-03-01T06:37:07;4.40;53.20
72814;DHT22;60945;48.516;-2.768;2023-03-01T06:39:33;4.40;53.20
72814;DHT22;60945;48.516;-2.768;2023-03-01T06:41:59;4.40;53.40
72814;DHT22;60945;48.516;-2.768;2023-03-01T06:44:25;4.40;53.20
72814;DHT22;60945;48.516;-2.768;2023-03-01T06:46:51;4.50;53.30
72814;DHT22;60945;48.516;-2.768;2023-03-01T06:49:17;4.50;52.90
72814;DHT22;60945;48.516;-2.768;2023-03-01T06:51:44;4.40;53.20
72814;DHT22;60945;48.516;-2.768;2023-03-01T06:54:10;4.50;53.40
72814;DHT22;60945;48.516;-2.768;2023-03-01T06:56:36;4.50;53.30
72814;DHT22;60945;48.516;-2.768;2023-03-01T06:59:02;4.50;53.80
72814;DHT22;60945;48.516;-2.768;2023-03-01T07:01:31;4.50;53.40
72814;DHT22;60945;48.516;-2.768;2023-03-01T07:03:57;4.60;53.60
72814;DHT22;60945;48.516;-2.768;2023-03-01T07:06:23;4.70;53.50
72814;DHT22;60945;48.516;-2.768;2023-03-01T07:08:49;4.60;53.50
72814;DHT22;60945;48.516;-2.768;2023-03-01T07:11:15;4.50;54.00
72814;DHT22;60945;48.516;-2.768;2023-03-01T07:13:41;4.50;54.10
72814;DHT22;60945;48.516;-2.768;2023-03-01T07:16:07;4.60;54.30
72814;DHT22;60945;48.516;-2.768;2023-03-01T07:18:33;4.60;54.30
72814;DHT22;60945;48.516;-2.768;2023-03-01T07:21:07;4.70;54.40
72814;DHT22;60945;48.516;-2.768;2023-03-01T07:23:33;4.80;54.10
72814;DHT22;60945;48.516;-2.768;2023-03-01T07:25:59;4.90;53.90
72814;DHT22;60945;48.516;-2.768;2023-03-01T07:28:26;5.00;53.90
72814;DHT22;60945;48.516;-2.768;2023-03-01T07:30:52;5.00;53.80
72814;DHT22;60945;48.516;-2.768;2023-03-01T07:36:00;5.10;54.40
72814;DHT22;60945;48.516;-2.768;2023-03-01T07:38:28;5.10;54.10
72814;DHT22;60945;48.516;-2.768;2023-03-01T07:41:01;5.10;54.50
72814;DHT22;60945;48.516;-2.768;2023-03-01T07:43:30;5.20;54.50
72814;DHT22;60945;48.516;-2.768;2023-03-01T07:45:59;5.30;54.30
72814;DHT22;60945;48.516;-2.768;2023-03-01T07:48:25;5.70;53.80
72814;DHT22;60945;48.516;-2.768;2023-03-01T07:50:51;5.80;53.50
72814;DHT22;60945;48.516;-2.768;2023-03-01T07:53:17;6.00;53.30
72814;DHT22;60945;48.516;-2.768;2023-03-01T07:55:43;6.30;52.50
72814;DHT22;60945;48.516;-2.768;2023-03-01T07:58:09;6.50;52.30
72814;DHT22;60945;48.516;-2.768;2023-03-01T08:00:35;6.60;52.00
72814;DHT22;60945;48.516;-2.768;2023-03-01T08:03:01;6.80;51.50
72814;DHT22;60945;48.516;-2.768;2023-03-01T08:05:28;7.00;51.30
72814;DHT22;60945;48.516;-2.768;2023-03-01T08:07:53;7.40;50.50
72814;DHT22;60945;48.516;-2.768;2023-03-01T08:10:20;7.50;50.50
72814;DHT22;60945;48.516;-2.768;2023-03-01T08:12:46;7.70;50.20
72814;DHT22;60945;48.516;-2.768;2023-03-01T08:15:11;7.70;50.20
72814;DHT22;60945;48.516;-2.768;2023-03-01T08:17:37;8.00;49.60
72814;DHT22;60945;48.516;-2.768;2023-03-01T08:20:03;8.10;49.50
72814;DHT22;60945;48.516;-2.768;2023-03-01T08:22:32;8.40;49.30
72814;DHT22;60945;48.516;-2.768;2023-03-01T08:25:01;8.50;49.00
72814;DHT22;60945;48.516;-2.768;2023-03-01T08:27:26;8.60;49.10
72814;DHT22;60945;48.516;-2.768;2023-03-01T08:29:52;9.10;48.20
72814;DHT22;60945;48.516;-2.768;2023-03-01T08:32:18;9.10;47.80
72814;DHT22;60945;48.516;-2.768;2023-03-01T08:34:46;9.40;47.60
72814;DHT22;60945;48.516;-2.768;2023-03-01T08:37:12;9.50;47.00
72814;DHT22;60945;48.516;-2.768;2023-03-01T08:39:46;9.30;47.30
72814;DHT22;60945;48.516;-2.768;2023-03-01T08:42:12;10.10;46.10
72814;DHT22;60945;48.516;-2.768;2023-03-01T08:44:37;10.30;45.60
72814;DHT22;60945;48.516;-2.768;2023-03-01T08:47:03;10.30;45.40
72814;DHT22;60945;48.516;-2.768;2023-03-01T08:49:30;10.30;45.90
72814;DHT22;60945;48.516;-2.768;2023-03-01T08:51:58;10.30;44.90
72814;DHT22;60945;48.516;-2.768;2023-03-01T08:54:23;10.40;45.00
72814;DHT22;60945;48.516;-2.768;2023-03-01T08:56:50;11.20;43.80
72814;DHT22;60945;48.516;-2.768;2023-03-01T08:59:18;11.60;43.10
72814;DHT22;60945;48.516;-2.768;2023-03-01T09:01:44;11.60;42.40
72814;DHT22;60945;48.516;-2.768;2023-03-01T09:04:19;11.60;42.10
72814;DHT22;60945;48.516;-2.768;2023-03-01T09:06:45;11.60;42.70
72814;DHT22;60945;48.516;-2.768;2023-03-01T09:09:16;11.30;42.60
72814;DHT22;60945;48.516;-2.768;2023-03-01T09:11:43;11.50;42.50
72814;DHT22;60945;48.516;-2.768;2023-03-01T09:14:12;12.00;42.40
72814;DHT22;60945;48.516;-2.768;2023-03-01T09:16:38;12.60;40.60
72814;DHT22;60945;48.516;-2.768;2023-03-01T09:19:04;12.70;40.50
72814;DHT22;60945;48.516;-2.768;2023-03-01T09:21:30;12.70;40.50
72814;DHT22;60945;48.516;-2.768;2023-03-01T09:23:56;13.00;39.00
72814;DHT22;60945;48.516;-2.768;2023-03-01T09:26:23;13.20;39.30
72814;DHT22;60945;48.516;-2.768;2023-03-01T09:28:50;13.00;39.60
72814;DHT22;60945;48.516;-2.768;2023-03-01T09:31:17;13.70;38.60
72814;DHT22;60945;48.516;-2.768;2023-03-01T09:33:46;15.40;36.60
72814;DHT22;60945;48.516;-2.768;2023-03-01T09:36:18;15.90;34.30
72814;DHT22;60945;48.516;-2.768;2023-03-01T09:38:45;15.20;36.10
72814;DHT22;60945;48.516;-2.768;2023-03-01T09:43:49;14.20;35.80
72814;DHT22;60945;48.516;-2.768;2023-03-01T09:46:20;13.40;38.50
72814;DHT22;60945;48.516;-2.768;2023-03-01T09:49:18;13.80;36.70
72814;DHT22;60945;48.516;-2.768;2023-03-01T09:51:57;14.30;37.90
72814;DHT22;60945;48.516;-2.768;2023-03-01T09:54:24;14.80;36.60
72814;DHT22;60945;48.516;-2.768;2023-03-01T09:57:01;15.50;35.30
72814;DHT22;60945;48.516;-2.768;2023-03-01T09:59:51;16.30;33.30
72814;DHT22;60945;48.516;-2.768;2023-03-01T10:05:15;13.90;36.90
72814;DHT22;60945;48.516;-2.768;2023-03-01T10:08:53;11.90;40.00
72814;DHT22;60945;48.516;-2.768;2023-03-01T10:10:52;11.10;41.90
72814;DHT22;60945;48.516;-2.768;2023-03-01T10:13:24;10.70;43.30
72814;DHT22;60945;48.516;-2.768;2023-03-01T10:15:53;10.70;44.20
72814;DHT22;60945;48.516;-2.768;2023-03-01T10:18:31;10.40;44.60
72814;DHT22;60945;48.516;-2.768;2023-03-01T10:21:01;10.20;44.70
72814;DHT22;60945;48.516;-2.768;2023-03-01T10:23:31;10.30;45.70
72814;DHT22;60945;48.516;-2.768;2023-03-01T10:29:08;9.80;45.20
72814;DHT22;60945;48.516;-2.768;2023-03-01T10:31:44;9.80;45.90
72814;DHT22;60945;48.516;-2.768;2023-03-01T10:34:25;10.00;46.10
72814;DHT22;60945;48.516;-2.768;2023-03-01T10:36:56;10.20;45.60
72814;DHT22;60945;48.516;-2.768;2023-03-01T10:39:24;9.90;46.10
72814;DHT22;60945;48.516;-2.768;2023-03-01T10:41:58;10.00;45.90
72814;DHT22;60945;48.516;-2.768;2023-03-01T10:47:04;9.70;46.40
72814;DHT22;60945;48.516;-2.768;2023-03-01T10:49:32;9.80;46.50
72814;DHT22;60945;48.516;-2.768;2023-03-01T10:52:17;9.70;47.10
72814;DHT22;60945;48.516;-2.768;2023-03-01T10:54:52;9.20;47.90
72814;DHT22;60945;48.516;-2.768;2023-03-01T10:57:34;9.80;47.10
72814;DHT22;60945;48.516;-2.768;2023-03-01T11:00:20;9.60;47.40
72814;DHT22;60945;48.516;-2.768;2023-03-01T11:03:02;9.70;48.10
72814;DHT22;60945;48.516;-2.768;2023-03-01T11:05:28;9.90;47.70
72814;DHT22;60945;48.516;-2.768;2023-03-01T11:07:59;10.30;46.70
72814;DHT22;60945;48.516;-2.768;2023-03-01T11:10:28;10.30;46.60
72814;DHT22;60945;48.516;-2.768;2023-03-01T11:13:07;10.90;45.60
72814;DHT22;60945;48.516;-2.768;2023-03-01T11:15:33;10.60;45.90
72814;DHT22;60945;48.516;-2.768;2023-03-01T11:17:59;10.50;46.40
72814;DHT22;60945;48.516;-2.768;2023-03-01T11:20:36;10.90;45.10
72814;DHT22;60945;48.516;-2.768;2023-03-01T11:23:05;11.00;45.30
72814;DHT22;60945;48.516;-2.768;2023-03-01T11:25:41;11.20;45.30
72814;DHT22;60945;48.516;-2.768;2023-03-01T11:28:14;10.70;45.70
72814;DHT22;60945;48.516;-2.768;2023-03-01T11:31:02;10.20;46.70
72814;DHT22;60945;48.516;-2.768;2023-03-01T11:36:44;9.60;47.60
72814;DHT22;60945;48.516;-2.768;2023-03-01T11:39:26;9.60;46.80
72814;DHT22;60945;48.516;-2.768;2023-03-01T11:42:25;9.40;47.60
72814;DHT22;60945;48.516;-2.768;2023-03-01T11:44:50;9.40;47.80
72814;DHT22;60945;48.516;-2.768;2023-03-01T11:53:01;9.70;47.40
72814;DHT22;60945;48.516;-2.768;2023-03-01T11:58:57;10.20;46.50
72814;DHT22;60945;48.516;-2.768;2023-03-01T12:07:07;10.30;46.20
72814;DHT22;60945;48.516;-2.768;2023-03-01T12:12:43;11.10;44.80
72814;DHT22;60945;48.516;-2.768;2023-03-01T12:29:32;11.20;45.80
72814;DHT22;60945;48.516;-2.768;2023-03-01T12:38:04;11.50;45.00
72814;DHT22;60945;48.516;-2.768;2023-03-01T12:40:52;11.90;44.50
72814;DHT22;60945;48.516;-2.768;2023-03-01T12:49:18;11.80;44.70
72814;DHT22;60945;48.516;-2.768;2023-03-01T12:54:36;12.60;42.60
72814;DHT22;60945;48.516;-2.768;2023-03-01T13:02:31;11.30;46.00
72814;DHT22;60945;48.516;-2.768;2023-03-01T13:17:53;11.50;46.40
72814;DHT22;60945;48.516;-2.768;2023-03-01T13:20:44;11.10;47.60
72814;DHT22;60945;48.516;-2.768;2023-03-01T13:23:26;10.80;48.20
72814;DHT22;60945;48.516;-2.768;2023-03-01T13:26:14;11.20;47.60
72814;DHT22;60945;48.516;-2.768;2023-03-01T13:28:50;11.80;46.60
72814;DHT22;60945;48.516;-2.768;2023-03-01T13:33:48;11.30;46.70
72814;DHT22;60945;48.516;-2.768;2023-03-01T13:54:53;14.30;40.90
72814;DHT22;60945;48.516;-2.768;2023-03-01T13:57:24;12.50;43.20
72814;DHT22;60945;48.516;-2.768;2023-03-01T13:59:51;11.90;45.20
72814;DHT22;60945;48.516;-2.768;2023-03-01T14:02:17;11.30;46.40
72814;DHT22;60945;48.516;-2.768;2023-03-01T14:04:56;10.90;47.20
72814;DHT22;60945;48.516;-2.768;2023-03-01T14:07:23;10.60;48.70
72814;DHT22;60945;48.516;-2.768;2023-03-01T14:10:00;10.70;48.50
72814;DHT22;60945;48.516;-2.768;2023-03-01T14:15:06;10.60;48.80
72814;DHT22;60945;48.516;-2.768;2023-03-01T14:18:12;10.20;49.70
72814;DHT22;60945;48.516;-2.768;2023-03-01T14:20:44;9.80;51.00
72814;DHT22;60945;48.516;-2.768;2023-03-01T14:23:20;9.90;51.70
72814;DHT22;60945;48.516;-2.768;2023-03-01T14:25:57;9.80;51.80
72814;DHT22;60945;48.516;-2.768;2023-03-01T14:28:29;9.90;52.00
72814;DHT22;60945;48.516;-2.768;2023-03-01T14:30:57;9.90;51.90
72814;DHT22;60945;48.516;-2.768;2023-03-01T14:33:30;9.60;52.00
72814;DHT22;60945;48.516;-2.768;2023-03-01T14:36:25;9.70;50.90
72814;DHT22;60945;48.516;-2.768;2023-03-01T14:38:51;9.90;50.80
72814;DHT22;60945;48.516;-2.768;2023-03-01T14:41:22;10.00;49.50
72814;DHT22;60945;48.516;-2.768;2023-03-01T14:44:02;10.00;49.20
72814;DHT22;60945;48.516;-2.768;2023-03-01T14:46:30;9.90;48.20
72814;DHT22;60945;48.516;-2.768;2023-03-01T14:49:06;10.20;47.70
72814;DHT22;60945;48.516;-2.768;2023-03-01T14:51:37;10.40;47.40
72814;DHT22;60945;48.516;-2.768;2023-03-01T14:54:10;10.20;47.40
72814;DHT22;60945;48.516;-2.768;2023-03-01T14:56:45;10.20;48.00
72814;DHT22;60945;48.516;-2.768;2023-03-01T14:59:11;9.80;48.80
72814;DHT22;60945;48.516;-2.768;2023-03-01T15:01:37;9.90;49.20
72814;DHT22;60945;48.516;-2.768;2023-03-01T15:04:03;10.20;48.60
72814;DHT22;60945;48.516;-2.768;2023-03-01T15:06:30;10.20;48.70
72814;DHT22;60945;48.516;-2.768;2023-03-01T15:08:56;10.00;49.60
72814;DHT22;60945;48.516;-2.768;2023-03-01T15:11:31;9.90;50.40
72814;DHT22;60945;48.516;-2.768;2023-03-01T15:13:57;10.00;50.50
72814;DHT22;60945;48.516;-2.768;2023-03-01T15:16:32;10.00;50.90
72814;DHT22;60945;48.516;-2.768;2023-03-01T15:19:03;9.80;50.70
72814;DHT22;60945;48.516;-2.768;2023-03-01T15:21:33;10.00;50.40
72814;DHT22;60945;48.516;-2.768;2023-03-01T15:26:56;10.10;49.20
72814;DHT22;60945;48.516;-2.768;2023-03-01T15:29:25;9.80;49.60
72814;DHT22;60945;48.516;-2.768;2023-03-01T15:32:06;9.70;50.00
72814;DHT22;60945;48.516;-2.768;2023-03-01T15:34:44;9.60;49.90
72814;DHT22;60945;48.516;-2.768;2023-03-01T15:37:43;9.90;49.80
72814;DHT22;60945;48.516;-2.768;2023-03-01T15:42:45;10.00;48.80
72814;DHT22;60945;48.516;-2.768;2023-03-01T15:45:23;9.90;49.00
72814;DHT22;60945;48.516;-2.768;2023-03-01T15:47:52;9.50;50.50
72814;DHT22;60945;48.516;-2.768;2023-03-01T15:50:22;9.60;50.60
72814;DHT22;60945;48.516;-2.768;2023-03-01T15:52:49;9.60;50.60
72814;DHT22;60945;48.516;-2.768;2023-03-01T15:55:28;9.50;50.90
72814;DHT22;60945;48.516;-2.768;2023-03-01T15:58:18;9.60;51.40
72814;DHT22;60945;48.516;-2.768;2023-03-01T16:00:44;9.50;51.90
72814;DHT22;60945;48.516;-2.768;2023-03-01T16:03:11;9.70;51.50
72814;DHT22;60945;48.516;-2.768;2023-03-01T16:05:38;9.20;53.00
72814;DHT22;60945;48.516;-2.768;2023-03-01T16:08:07;9.50;53.20
72814;DHT22;60945;48.516;-2.768;2023-03-01T16:10:34;9.40;53.90
72814;DHT22;60945;48.516;-2.768;2023-03-01T16:13:00;9.30;53.30
72814;DHT22;60945;48.516;-2.768;2023-03-01T16:15:29;9.10;53.20
72814;DHT22;60945;48.516;-2.768;2023-03-01T16:17:55;9.40;53.00
72814;DHT22;60945;48.516;-2.768;2023-03-01T16:20:22;9.10;53.60
72814;DHT22;60945;48.516;-2.768;2023-03-01T16:22:48;9.40;53.20
72814;DHT22;60945;48.516;-2.768;2023-03-01T16:25:16;9.30;53.30
72814;DHT22;60945;48.516;-2.768;2023-03-01T16:27:43;9.30;53.60
72814;DHT22;60945;48.516;-2.768;2023-03-01T16:30:10;9.00;54.10
72814;DHT22;60945;48.516;-2.768;2023-03-01T16:32:40;8.90;54.80
72814;DHT22;60945;48.516;-2.768;2023-03-01T16:35:08;8.80;55.20
72814;DHT22;60945;48.516;-2.768;2023-03-01T16:37:35;9.00;54.80
72814;DHT22;60945;48.516;-2.768;2023-03-01T16:40:04;9.10;54.60
72814;DHT22;60945;48.516;-2.768;2023-03-01T16:42:34;9.00;54.30
72814;DHT22;60945;48.516;-2.768;2023-03-01T16:45:00;8.90;54.10
72814;DHT22;60945;48.516;-2.768;2023-03-01T16:47:27;9.00;53.70
72814;DHT22;60945;48.516;-2.768;2023-03-01T16:49:53;9.10;52.40
72814;DHT22;60945;48.516;-2.768;2023-03-01T16:52:19;8.90;53.30
72814;DHT22;60945;48.516;-2.768;2023-03-01T16:54:45;8.80;54.00
72814;DHT22;60945;48.516;-2.768;2023-03-01T16:57:11;8.50;54.90
72814;DHT22;60945;48.516;-2.768;2023-03-01T16:59:36;8.40;54.90
72814;DHT22;60945;48.516;-2.768;2023-03-01T17:02:03;8.70;53.70
72814;DHT22;60945;48.516;-2.768;2023-03-01T17:04:32;8.50;54.00
72814;DHT22;60945;48.516;-2.768;2023-03-01T17:06:57;8.50;54.10
72814;DHT22;60945;48.516;-2.768;2023-03-01T17:09:23;8.30;54.10
72814;DHT22;60945;48.516;-2.768;2023-03-01T17:11:52;8.40;53.90
72814;DHT22;60945;48.516;-2.768;2023-03-01T17:14:17;8.50;53.10
72814;DHT22;60945;48.516;-2.768;2023-03-01T17:16:43;8.50;53.30
72814;DHT22;60945;48.516;-2.768;2023-03-01T17:19:10;8.70;52.50
72814;DHT22;60945;48.516;-2.768;2023-03-01T17:21:38;8.70;52.60
72814;DHT22;60945;48.516;-2.768;2023-03-01T17:24:04;8.70;53.40
72814;DHT22;60945;48.516;-2.768;2023-03-01T17:26:29;8.40;54.10
72814;DHT22;60945;48.516;-2.768;2023-03-01T17:28:56;8.40;54.60
72814;DHT22;60945;48.516;-2.768;2023-03-01T17:31:23;8.30;55.10
72814;DHT22;60945;48.516;-2.768;2023-03-01T17:33:52;8.50;55.00
72814;DHT22;60945;48.516;-2.768;2023-03-01T17:36:18;8.50;54.80
72814;DHT22;60945;48.516;-2.768;2023-03-01T17:38:43;8.40;54.50
72814;DHT22;60945;48.516;-2.768;2023-03-01T17:41:10;8.40;54.80
72814;DHT22;60945;48.516;-2.768;2023-03-01T17:43:36;8.60;54.40
72814;DHT22;60945;48.516;-2.768;2023-03-01T17:46:02;8.30;54.90
72814;DHT22;60945;48.516;-2.768;2023-03-01T17:48:28;8.30;54.80
72814;DHT22;60945;48.516;-2.768;2023-03-01T17:50:54;8.30;54.80